createdAt,value
2023-05-20T00:01:29.755Z,3.27
2023-05-20T00:03:57.691Z,3.30
2023-05-20T00:06:27.094Z,3.60
2023-05-20T00:08:55.729Z,3.27
2023-05-20T00:11:23.863Z,3.30
2023-05-20T00:13:51.705Z,3.53
2023-05-20T00:16:19.517Z,3.03
2023-05-20T00:18:47.305Z,3.27
2023-05-20T00:21:15.072Z,3.57
2023-05-20T00:23:44.289Z,3.50
2023-05-20T00:26:12.026Z,2.97
2023-05-20T00:28:39.707Z,2.67
2023-05-20T00:31:07.400Z,3.17
2023-05-20T00:33:36.403Z,3.00
2023-05-20T00:36:04.166Z,3.30
2023-05-20T00:38:31.935Z,3.13
2023-05-20T00:41:01.266Z,2.83
2023-05-20T00:43:29.057Z,3.13
2023-05-20T00:45:56.803Z,4.60
2023-05-20T00:48:24.562Z,2.90
2023-05-20T00:50:52.912Z,3.23
2023-05-20T00:53:21.264Z,2.13
2023-05-20T00:55:49.039Z,2.93
2023-05-20T00:58:18.168Z,2.80
2023-05-20T01:00:46.281Z,2.60
2023-05-20T01:03:14.331Z,3.37
2023-05-20T01:05:42.558Z,2.30
2023-05-20T01:08:10.479Z,2.40
2023-05-20T01:10:40.592Z,2.50
2023-05-20T01:13:10.904Z,2.43
2023-05-20T01:15:41.714Z,2.87
2023-05-20T01:18:10.714Z,2.43
2023-05-20T01:20:39.390Z,2.83
2023-05-20T01:23:08.687Z,2.37
2023-05-20T01:25:36.537Z,2.57
2023-05-20T01:28:04.612Z,2.87
2023-05-20T01:30:38.351Z,2.60
2023-05-20T01:33:08.343Z,2.60
2023-05-20T01:35:36.641Z,2.33
2023-05-20T01:38:06.337Z,2.87
2023-05-20T01:40:35.879Z,2.97
2023-05-20T01:43:04.358Z,2.50
2023-05-20T01:45:32.683Z,2.70
2023-05-20T01:48:01.778Z,2.90
2023-05-20T01:50:29.645Z,3.00
2023-05-20T01:52:57.476Z,2.57
2023-05-20T01:55:25.183Z,2.70
2023-05-20T01:57:54.240Z,2.40
2023-05-20T02:00:22.204Z,2.40
2023-05-20T02:02:50.027Z,2.40
2023-05-20T02:05:17.944Z,3.17
2023-05-20T02:07:45.815Z,2.50
2023-05-20T02:10:13.810Z,2.40
2023-05-20T02:12:41.630Z,2.70
2023-05-20T02:15:11.334Z,2.63
2023-05-20T02:17:39.755Z,2.77
2023-05-20T02:20:09.234Z,2.73
2023-05-20T02:22:36.982Z,2.70
2023-05-20T02:25:05.098Z,3.03
2023-05-20T02:27:32.805Z,2.17
2023-05-20T02:30:01.420Z,2.53
2023-05-20T02:32:30.530Z,2.67
2023-05-20T02:34:58.261Z,2.20
2023-05-20T02:37:26.387Z,2.67
2023-05-20T02:39:54.066Z,2.73
2023-05-20T02:42:21.822Z,3.17
2023-05-20T02:44:49.629Z,2.97
2023-05-20T02:47:17.352Z,2.37
2023-05-20T02:49:46.784Z,2.63
2023-05-20T02:52:16.141Z,2.40
2023-05-20T02:54:43.894Z,2.50
2023-05-20T02:57:12.020Z,2.70
2023-05-20T02:59:39.764Z,3.47
2023-05-20T03:02:07.482Z,3.60
2023-05-20T03:04:38.507Z,2.70
2023-05-20T03:07:09.050Z,2.70
2023-05-20T03:09:36.838Z,2.90
2023-05-20T03:12:04.816Z,2.50
2023-05-20T03:14:32.488Z,2.73
2023-05-20T03:17:00.241Z,2.30
2023-05-20T03:19:28.134Z,2.60
2023-05-20T03:21:55.999Z,3.00
2023-05-20T03:24:25.062Z,2.87
2023-05-20T03:26:52.816Z,2.83
2023-05-20T03:29:21.288Z,2.70
2023-05-20T03:31:49.082Z,2.50
2023-05-20T03:34:16.825Z,2.37
2023-05-20T03:36:44.578Z,2.77
2023-05-20T03:39:12.271Z,2.47
2023-05-20T03:41:41.357Z,2.63
2023-05-20T03:44:09.048Z,3.00
2023-05-20T03:46:37.181Z,2.53
2023-05-20T03:49:05.876Z,2.40
2023-05-20T03:51:33.566Z,2.80
2023-05-20T03:54:01.324Z,2.40
2023-05-20T03:56:29.113Z,2.90
2023-05-20T03:58:58.258Z,2.67
2023-05-20T04:01:27.759Z,2.97
2023-05-20T04:03:55.583Z,2.87
2023-05-20T04:06:23.524Z,2.93
2023-05-20T04:08:52.896Z,2.50
2023-05-20T04:11:21.439Z,2.40
2023-05-20T04:13:49.141Z,2.53
2023-05-20T04:16:18.347Z,2.57
2023-05-20T04:18:46.250Z,2.70
2023-05-20T04:21:14.109Z,2.50
2023-05-20T04:23:42.020Z,2.50
2023-05-20T04:26:09.739Z,2.40
2023-05-20T04:28:37.820Z,2.63
2023-05-20T04:31:05.933Z,2.40
2023-05-20T04:33:38.690Z,2.60
2023-05-20T04:36:08.671Z,2.40
2023-05-20T04:38:36.382Z,2.57
2023-05-20T04:41:04.113Z,3.03
2023-05-20T04:43:31.830Z,2.77
2023-05-20T04:46:01.421Z,2.23
2023-05-20T04:48:29.244Z,2.00
2023-05-20T04:50:58.377Z,2.80
2023-05-20T04:53:26.187Z,2.30
2023-05-20T04:55:57.003Z,2.07
2023-05-20T04:58:25.373Z,2.20
2023-05-20T05:00:54.018Z,2.30
2023-05-20T05:03:21.752Z,2.63
2023-05-20T05:05:49.560Z,2.03
2023-05-20T05:08:18.653Z,2.00
2023-05-20T05:10:46.618Z,1.80
2023-05-20T05:13:14.394Z,2.43
2023-05-20T05:15:42.239Z,2.00
2023-05-20T05:18:10.196Z,1.70
2023-05-20T05:20:38.088Z,2.07
2023-05-20T05:23:05.813Z,2.30
2023-05-20T05:25:35.024Z,1.77
2023-05-20T05:28:02.990Z,2.30
2023-05-20T05:30:30.723Z,2.10
2023-05-20T05:33:45.477Z,2.00
2023-05-20T05:36:13.165Z,1.83
2023-05-20T05:38:40.967Z,1.70
2023-05-20T05:41:08.695Z,2.17
2023-05-20T05:43:36.607Z,2.33
2023-05-20T05:46:05.153Z,1.70
2023-05-20T05:48:33.300Z,2.00
2023-05-20T05:51:02.790Z,1.60
2023-05-20T05:53:30.539Z,1.73
2023-05-20T05:55:58.274Z,1.90
2023-05-20T05:58:26.004Z,1.50
2023-05-20T06:00:54.807Z,2.33
2023-05-20T06:03:22.991Z,2.00
2023-05-20T06:05:51.011Z,1.90
2023-05-20T06:08:20.077Z,2.17
2023-05-20T06:10:50.192Z,2.10
2023-05-20T06:13:18.095Z,1.90
2023-05-20T06:15:46.481Z,2.30
2023-05-20T06:18:14.288Z,1.67
2023-05-20T06:20:42.055Z,1.97
2023-05-20T06:23:09.807Z,2.23
2023-05-20T06:25:38.873Z,2.07
2023-05-20T06:28:06.597Z,1.70
2023-05-20T06:30:34.298Z,2.00
2023-05-20T06:33:02.057Z,2.03
2023-05-20T06:35:29.766Z,1.90
2023-05-20T06:37:57.566Z,1.80
2023-05-20T06:40:27.207Z,2.00
2023-05-20T06:42:56.384Z,2.10
2023-05-20T06:45:24.091Z,1.83
2023-05-20T06:47:54.149Z,2.13
2023-05-20T06:50:22.111Z,2.10
2023-05-20T06:52:49.839Z,2.00
2023-05-20T06:55:17.721Z,2.13
2023-05-20T06:57:45.735Z,2.10
2023-05-20T07:00:15.644Z,1.90
2023-05-20T07:02:43.531Z,2.10
2023-05-20T07:05:11.838Z,2.03
2023-05-20T07:07:39.919Z,2.10
2023-05-20T07:10:09.155Z,2.37
2023-05-20T07:12:37.197Z,2.20
2023-05-20T07:15:05.242Z,2.70
2023-05-20T07:17:34.335Z,3.23
2023-05-20T07:20:02.156Z,2.67
2023-05-20T07:22:29.875Z,2.50
2023-05-20T07:24:57.669Z,2.80
2023-05-20T07:27:25.361Z,2.13
2023-05-20T07:29:53.530Z,2.40
2023-05-20T07:32:21.726Z,2.70
2023-05-20T07:34:50.805Z,2.47
2023-05-20T07:37:18.506Z,2.60
2023-05-20T07:39:46.274Z,3.27
2023-05-20T07:42:14.045Z,2.67
2023-05-20T07:44:41.906Z,2.60
2023-05-20T07:47:09.608Z,2.87
2023-05-20T07:49:37.290Z,2.83
2023-05-20T07:52:07.067Z,2.57
2023-05-20T07:54:36.594Z,2.17
2023-05-20T07:57:04.325Z,4.17
2023-05-20T07:59:32.008Z,2.77
2023-05-20T08:01:59.851Z,2.63
2023-05-20T08:04:28.158Z,2.77
2023-05-20T08:06:56.186Z,1.97
2023-05-20T08:09:25.344Z,2.50
2023-05-20T08:11:53.039Z,2.70
2023-05-20T08:14:20.920Z,2.90
2023-05-20T08:16:48.739Z,2.80
2023-05-20T08:19:16.596Z,2.73
2023-05-20T08:21:44.593Z,2.20
2023-05-20T08:24:12.308Z,2.70
2023-05-20T08:26:41.662Z,2.57
2023-05-20T08:29:09.587Z,2.37
2023-05-20T08:31:37.415Z,2.70
2023-05-20T08:34:05.150Z,2.00
2023-05-20T08:36:33.001Z,2.37
2023-05-20T08:39:00.682Z,2.57
2023-05-20T08:41:28.424Z,2.33
2023-05-20T08:43:58.644Z,2.30
2023-05-20T08:46:26.617Z,2.60
2023-05-20T08:48:54.340Z,2.70
2023-05-20T08:51:23.854Z,2.40
2023-05-20T08:53:52.231Z,3.10
2023-05-20T08:56:20.356Z,2.30
2023-05-20T08:58:48.083Z,2.00
2023-05-20T09:01:18.037Z,2.00
2023-05-20T09:03:45.768Z,2.33
2023-05-20T09:06:20.086Z,2.30
2023-05-20T09:08:49.639Z,2.30
2023-05-20T09:11:17.398Z,2.47
2023-05-20T09:13:45.370Z,2.80
2023-05-20T09:16:13.596Z,1.87
2023-05-20T09:18:43.532Z,2.87
2023-05-20T09:21:11.705Z,2.10
2023-05-20T09:23:39.576Z,1.63
2023-05-20T09:26:07.712Z,1.93
2023-05-20T09:28:38.257Z,1.90
2023-05-20T09:31:07.194Z,1.97
2023-05-20T09:33:35.778Z,2.20
2023-05-20T09:36:07.033Z,2.50
2023-05-20T09:38:37.928Z,1.70
2023-05-20T09:41:09.617Z,1.67
2023-05-20T09:43:37.460Z,1.73
2023-05-20T09:46:05.785Z,2.00
2023-05-20T09:48:34.455Z,1.47
2023-05-20T09:51:02.866Z,1.83
2023-05-20T09:53:32.337Z,1.97
2023-05-20T09:56:00.395Z,2.37
2023-05-20T09:58:28.367Z,1.73
2023-05-20T10:00:56.141Z,2.40
2023-05-20T10:03:25.255Z,2.07
2023-05-20T10:06:03.036Z,2.20
2023-05-20T10:08:42.704Z,1.80
2023-05-20T10:11:16.753Z,2.10
2023-05-20T10:13:54.750Z,1.83
2023-05-20T10:16:31.158Z,1.87
2023-05-20T10:19:05.059Z,1.87
2023-05-20T10:21:33.812Z,1.80
2023-05-20T10:24:09.174Z,2.30
2023-05-20T10:26:38.272Z,1.70
2023-05-20T10:29:16.580Z,1.97
2023-05-20T10:31:51.273Z,2.13
2023-05-20T10:34:20.496Z,2.10
2023-05-20T10:36:58.290Z,1.57
2023-05-20T10:39:29.656Z,1.70
2023-05-20T10:42:08.310Z,2.10
2023-05-20T10:44:43.509Z,1.90
2023-05-20T10:49:46.068Z,1.60
2023-05-20T10:52:14.394Z,1.73
2023-05-20T10:54:50.151Z,2.03
2023-05-20T10:57:20.032Z,2.40
2023-05-20T10:59:48.484Z,1.80
2023-05-20T11:02:17.518Z,1.63
2023-05-20T11:04:45.797Z,1.73
2023-05-20T11:07:13.617Z,1.60
2023-05-20T11:09:52.046Z,1.90
2023-05-20T11:12:19.881Z,1.50
2023-05-20T11:14:49.413Z,1.33
2023-05-20T11:17:17.407Z,1.87
2023-05-20T11:19:45.116Z,1.47
2023-05-20T11:22:13.007Z,1.90
2023-05-20T11:24:40.847Z,1.30
2023-05-20T11:27:10.318Z,2.13
2023-05-20T11:29:38.296Z,1.90
2023-05-20T11:32:06.829Z,1.97
2023-05-20T11:34:35.317Z,2.00
2023-05-20T11:37:03.085Z,1.60
2023-05-20T11:39:31.459Z,2.37
2023-05-20T11:41:59.558Z,1.43
2023-05-20T11:44:28.716Z,1.60
2023-05-20T11:47:01.603Z,1.80
2023-05-20T11:49:30.698Z,1.70
2023-05-20T11:51:58.505Z,1.43
2023-05-20T11:54:26.427Z,1.57
2023-05-20T11:56:55.680Z,1.70
2023-05-20T11:59:25.431Z,1.77
2023-05-20T12:01:54.667Z,1.10
2023-05-20T12:04:22.578Z,1.87
2023-05-20T12:06:50.354Z,1.73
2023-05-20T12:09:18.055Z,1.50
2023-05-20T12:11:45.787Z,1.70
2023-05-20T12:14:13.567Z,1.67
2023-05-20T12:16:41.359Z,1.70
2023-05-20T12:19:10.499Z,2.10
2023-05-20T12:21:38.281Z,1.80
2023-05-20T12:24:08.465Z,2.30
2023-05-20T12:26:36.505Z,1.47
2023-05-20T12:29:04.198Z,1.83
2023-05-20T12:31:34.694Z,1.50
2023-05-20T12:34:02.905Z,1.73
2023-05-20T12:36:32.374Z,2.13
2023-05-20T12:39:00.145Z,1.43
2023-05-20T12:41:27.880Z,1.70
2023-05-20T12:43:55.623Z,1.50
2023-05-20T12:46:23.553Z,1.30
2023-05-20T12:48:51.355Z,1.77
2023-05-20T12:51:20.231Z,1.50
2023-05-20T12:53:49.444Z,1.80
2023-05-20T12:56:17.696Z,1.83
2023-05-20T12:58:45.400Z,1.87
2023-05-20T13:01:13.158Z,1.47
2023-05-20T13:03:41.462Z,1.60
2023-05-20T13:06:09.234Z,1.50
2023-05-20T13:08:36.910Z,1.70
2023-05-20T13:11:05.996Z,1.40
2023-05-20T13:13:33.720Z,1.43
2023-05-20T13:16:01.449Z,1.30
2023-05-20T13:18:29.198Z,1.60
2023-05-20T13:20:57.073Z,1.50
2023-05-20T13:23:24.800Z,1.33
2023-05-20T13:25:52.852Z,1.73
2023-05-20T13:28:22.438Z,1.33
2023-05-20T13:30:50.175Z,1.40
2023-05-20T13:33:18.106Z,1.40
2023-05-20T13:35:45.823Z,1.50
2023-05-20T13:38:13.568Z,1.70
2023-05-20T13:40:41.299Z,1.40
2023-05-20T13:43:09.059Z,1.40
2023-05-20T13:45:38.120Z,1.60
2023-05-20T13:48:06.689Z,1.40
2023-05-20T13:50:34.641Z,1.60
2023-05-20T13:53:02.921Z,1.57
2023-05-20T13:55:31.593Z,1.50
2023-05-20T13:57:59.341Z,1.57
2023-05-20T14:00:27.079Z,2.17
2023-05-20T14:02:56.295Z,2.10
2023-05-20T14:05:24.173Z,1.70
2023-05-20T14:07:51.947Z,1.67
2023-05-20T14:10:19.738Z,1.27
2023-05-20T14:12:48.248Z,1.33
2023-05-20T14:15:16.384Z,1.57
2023-05-20T14:17:44.175Z,1.53
2023-05-20T14:20:13.738Z,1.40
2023-05-20T14:22:41.456Z,1.90
2023-05-20T14:25:09.694Z,1.90
2023-05-20T14:27:37.845Z,1.70
2023-05-20T14:30:06.810Z,1.70
2023-05-20T14:32:34.724Z,1.40
2023-05-20T14:35:02.486Z,1.70
2023-05-20T14:37:31.638Z,1.40
2023-05-20T14:39:59.382Z,2.00
2023-05-20T14:42:27.266Z,1.80
2023-05-20T14:44:54.953Z,1.53
2023-05-20T14:47:22.827Z,1.50
2023-05-20T14:49:51.185Z,1.50
2023-05-20T14:52:19.132Z,1.80
2023-05-20T14:54:48.268Z,3.40
2023-05-20T14:57:16.813Z,1.90
2023-05-20T14:59:44.695Z,1.63
2023-05-20T15:02:15.450Z,2.33
2023-05-20T15:04:46.301Z,1.60
2023-05-20T15:07:14.188Z,1.33
2023-05-20T15:09:41.947Z,1.57
2023-05-20T15:12:11.923Z,1.87
2023-05-20T15:14:39.658Z,1.60
2023-05-20T15:17:07.686Z,1.63
2023-05-20T15:19:36.951Z,1.90
2023-05-20T15:22:05.764Z,1.97
2023-05-20T15:24:33.541Z,1.90
2023-05-20T15:27:01.237Z,1.60
2023-05-20T15:29:30.373Z,1.77
2023-05-20T15:31:58.115Z,1.77
2023-05-20T15:34:25.805Z,1.50
2023-05-20T15:36:53.785Z,1.97
2023-05-20T15:39:21.488Z,2.93
2023-05-20T15:41:49.999Z,2.20
2023-05-20T15:44:17.761Z,3.20
2023-05-20T15:46:47.287Z,1.77
2023-05-20T15:49:15.118Z,2.10
2023-05-20T15:51:52.376Z,2.77
2023-05-20T15:54:30.094Z,2.30
2023-05-20T15:56:57.940Z,2.17
2023-05-20T15:59:25.870Z,1.60
2023-05-20T16:01:55.025Z,1.53
2023-05-20T16:04:23.098Z,1.50
2023-05-20T16:06:50.963Z,1.97
2023-05-20T16:09:18.831Z,3.47
2023-05-20T16:11:47.818Z,2.30
2023-05-20T16:14:15.604Z,1.60
2023-05-20T16:16:43.429Z,1.80
2023-05-20T16:19:12.626Z,1.50
2023-05-20T16:21:40.390Z,2.07
2023-05-20T16:24:08.113Z,2.63
2023-05-20T16:26:35.810Z,1.40
2023-05-20T16:29:03.510Z,1.77
2023-05-20T16:31:31.261Z,1.73
2023-05-20T16:33:58.977Z,1.77
2023-05-20T16:36:28.155Z,1.67
2023-05-20T16:38:56.011Z,1.40
2023-05-20T16:41:23.841Z,2.00
2023-05-20T16:43:51.585Z,1.50
2023-05-20T16:46:19.335Z,1.90
2023-05-20T16:48:47.169Z,1.57
2023-05-20T16:51:14.901Z,1.77
2023-05-20T16:53:43.981Z,1.50
2023-05-20T16:56:11.679Z,1.80
2023-05-20T16:58:39.435Z,1.40
2023-05-20T17:01:08.243Z,1.40
2023-05-20T17:03:36.369Z,1.50
2023-05-20T17:06:04.132Z,1.70
2023-05-20T17:08:31.965Z,1.80
2023-05-20T17:11:01.499Z,1.30
2023-05-20T17:13:29.195Z,1.70
2023-05-20T17:15:56.952Z,2.07
2023-05-20T17:18:24.716Z,1.70
2023-05-20T17:20:52.403Z,1.40
2023-05-20T17:23:20.152Z,1.60
2023-05-20T17:25:47.937Z,1.77
2023-05-20T17:28:17.021Z,1.77
2023-05-20T17:30:44.719Z,1.40
2023-05-20T17:33:12.516Z,1.43
2023-05-20T17:35:40.755Z,1.70
2023-05-20T17:38:08.530Z,1.70
2023-05-20T17:40:36.550Z,1.60
2023-05-20T17:43:04.502Z,1.73
2023-05-20T17:45:33.621Z,1.83
2023-05-20T17:48:02.485Z,1.27
2023-05-20T17:50:30.362Z,2.00
2023-05-20T17:52:58.058Z,1.80
2023-05-20T17:55:25.778Z,2.20
2023-05-20T17:57:53.538Z,1.80
2023-05-20T18:00:21.672Z,2.10
2023-05-20T18:02:51.731Z,1.43
2023-05-20T18:05:19.529Z,1.60
2023-05-20T18:07:47.380Z,1.70
2023-05-20T18:10:15.260Z,1.70
2023-05-20T18:12:45.282Z,1.90
2023-05-20T18:15:14.238Z,1.80
2023-05-20T18:17:41.979Z,2.03
2023-05-20T18:20:12.682Z,1.60
2023-05-20T18:22:45.021Z,1.93
2023-05-20T18:25:13.023Z,1.80
2023-05-20T18:27:41.070Z,1.80
2023-05-20T18:30:09.834Z,1.90
2023-05-20T18:32:38.869Z,2.10
2023-05-20T18:35:07.658Z,1.50
2023-05-20T18:37:36.704Z,1.97
2023-05-20T18:40:06.475Z,2.23
2023-05-20T18:42:34.240Z,1.80
2023-05-20T18:45:01.968Z,1.80
2023-05-20T18:47:29.821Z,2.40
2023-05-20T18:49:57.574Z,1.83
2023-05-20T18:52:25.445Z,2.03
2023-05-20T18:54:54.522Z,2.03
2023-05-20T18:57:22.536Z,1.90
2023-05-20T18:59:50.514Z,1.80
2023-05-20T19:02:18.501Z,2.33
2023-05-20T19:04:46.231Z,2.27
2023-05-20T19:07:13.950Z,1.90
2023-05-20T19:09:41.665Z,1.80
2023-05-20T19:12:10.967Z,1.70
2023-05-20T19:14:38.689Z,2.33
2023-05-20T19:17:07.125Z,1.70
2023-05-20T19:19:34.916Z,2.00
2023-05-20T19:22:02.640Z,2.67
2023-05-20T19:24:32.000Z,2.13
2023-05-20T19:27:00.131Z,2.00
2023-05-20T19:29:29.305Z,2.07
2023-05-20T19:31:57.538Z,2.53
2023-05-20T19:34:25.499Z,2.17
2023-05-20T19:36:53.184Z,2.53
2023-05-20T19:39:21.971Z,2.10
2023-05-20T19:41:49.789Z,2.00
2023-05-20T19:44:18.914Z,2.43
2023-05-20T19:46:48.227Z,2.10
2023-05-20T19:49:15.967Z,2.47
2023-05-20T19:51:44.044Z,2.40
2023-05-20T19:54:11.817Z,2.03
2023-05-20T19:56:39.659Z,2.20
2023-05-20T19:59:07.403Z,2.70
2023-05-20T20:01:35.164Z,2.30
2023-05-20T20:04:04.377Z,2.27
2023-05-20T20:06:32.426Z,2.00
2023-05-20T20:09:00.163Z,2.53
2023-05-20T20:11:27.886Z,2.20
2023-05-20T20:13:55.597Z,2.60
2023-05-20T20:16:23.403Z,2.80
2023-05-20T20:18:51.230Z,2.53
2023-05-20T20:21:20.391Z,2.60
2023-05-20T20:23:48.126Z,2.60
2023-05-20T20:26:16.236Z,2.27
2023-05-20T20:28:43.956Z,2.87
2023-05-20T20:31:11.744Z,2.30
2023-05-20T20:33:39.471Z,2.37
2023-05-20T20:36:08.856Z,2.70
2023-05-20T20:38:38.677Z,3.07
2023-05-20T20:41:09.455Z,2.37
2023-05-20T20:43:38.074Z,2.37
2023-05-20T20:46:06.345Z,3.23
2023-05-20T20:48:34.540Z,2.67
2023-05-20T20:51:02.262Z,2.80
2023-05-20T20:53:30.025Z,2.83
2023-05-20T20:55:59.195Z,2.70
2023-05-20T20:58:27.054Z,2.60
2023-05-20T21:00:54.982Z,2.70
2023-05-20T21:03:23.926Z,3.13
2023-05-20T21:05:51.862Z,2.60
2023-05-20T21:08:22.072Z,2.60
2023-05-20T21:10:49.794Z,2.93
2023-05-20T21:13:19.105Z,3.10
2023-05-20T21:15:47.349Z,2.70
2023-05-20T21:18:21.614Z,2.83
2023-05-20T21:20:49.470Z,3.27
2023-05-20T21:23:17.176Z,2.70
2023-05-20T21:25:45.072Z,2.77
2023-05-20T21:28:12.967Z,3.10
2023-05-20T21:30:42.135Z,3.30
2023-05-20T21:33:09.902Z,3.10
2023-05-20T21:35:37.946Z,3.00
2023-05-20T21:38:05.808Z,2.87
2023-05-20T21:40:33.781Z,2.63
2023-05-20T21:43:01.572Z,3.20
2023-05-20T21:45:29.270Z,2.87
2023-05-20T21:47:58.366Z,3.10
2023-05-20T21:50:26.112Z,3.57
2023-05-20T21:52:53.872Z,3.30
2023-05-20T21:55:23.631Z,3.40
2023-05-20T21:57:51.781Z,3.10
2023-05-20T22:00:20.602Z,3.10
2023-05-20T22:02:48.572Z,3.20
2023-05-20T22:05:18.271Z,3.33
2023-05-20T22:07:46.363Z,3.33
2023-05-20T22:10:14.576Z,3.20
2023-05-20T22:12:43.200Z,3.23
2023-05-20T22:15:12.037Z,3.03
2023-05-20T22:17:39.801Z,3.50
2023-05-20T22:20:10.476Z,3.20
2023-05-20T22:22:39.865Z,2.80
2023-05-20T22:25:08.443Z,3.47
2023-05-20T22:27:36.226Z,3.33
2023-05-20T22:30:06.127Z,3.60
2023-05-20T22:32:33.994Z,3.27
2023-05-20T22:35:01.738Z,3.57
2023-05-20T22:37:30.014Z,3.60
2023-05-20T22:39:59.109Z,4.07
2023-05-20T22:42:26.848Z,3.57
2023-05-20T22:44:54.596Z,3.67
2023-05-20T22:47:22.404Z,3.50
2023-05-20T22:49:50.798Z,3.33
2023-05-20T22:52:18.836Z,3.63
2023-05-20T22:54:46.683Z,3.43
2023-05-20T22:57:17.043Z,3.60
2023-05-20T22:59:44.708Z,3.40
2023-05-20T23:02:12.505Z,3.60
2023-05-20T23:04:41.386Z,3.90
2023-05-20T23:07:09.165Z,3.50
2023-05-20T23:09:36.879Z,3.73
2023-05-20T23:12:05.115Z,3.40
2023-05-20T23:14:34.239Z,3.40
2023-05-20T23:17:02.061Z,3.30
2023-05-20T23:19:29.935Z,2.83
2023-05-20T23:21:57.919Z,3.80
2023-05-20T23:24:25.655Z,4.10
2023-05-20T23:26:53.929Z,3.37
2023-05-20T23:29:22.215Z,3.87
2023-05-20T23:31:51.293Z,4.20
2023-05-20T23:34:19.102Z,3.43
2023-05-20T23:36:46.831Z,3.17
2023-05-20T23:39:16.246Z,3.60
2023-05-20T23:41:45.888Z,4.40
2023-05-20T23:44:13.587Z,3.70
2023-05-20T23:46:41.784Z,3.80
2023-05-20T23:49:12.282Z,3.17
2023-05-20T23:51:40.003Z,3.90
2023-05-20T23:54:08.066Z,3.53
2023-05-20T23:56:36.188Z,3.40
2023-05-20T23:59:03.912Z,3.30
